sensor_id;sensor_type;location;lat;lon;timestamp;temperature;humidity
29855;DHT22;16733;48.738;9.106;2023-04-24T00:01:31;10.50;99.90
29855;DHT22;16733;48.738;9.106;2023-04-24T00:03:57;10.50;99.90
29855;DHT22;16733;48.738;9.106;2023-04-24T00:06:25;10.50;99.90
29855;DHT22;16733;48.738;9.106;2023-04-24T00:09:02;10.50;99.90
29855;DHT22;16733;48.738;9.106;2023-04-24T00:11:29;10.50;99.90
29855;DHT22;16733;48.738;9.106;2023-04-24T00:13:56;10.50;99.90
29855;DHT22;16733;48.738;9.106;2023-04-24T00:16:22;10.60;99.90
29855;DHT22;16733;48.738;9.106;2023-04-24T00:18:48;10.60;99.90
29855;DHT22;16733;48.738;9.106;2023-04-24T00:21:14;10.60;99.90
29855;DHT22;16733;48.738;9.106;2023-04-24T00:23:41;10.60;99.90
29855;DHT22;16733;48.738;9.106;2023-04-24T00:26:07;10.60;99.90
29855;DHT22;16733;48.738;9.106;2023-04-24T00:28:32;10.70;99.90
29855;DHT22;16733;48.738;9.106;2023-04-24T00:30:58;10.70;99.90
29855;DHT22;16733;48.738;9.106;2023-04-24T00:33:23;10.70;99.90
29855;DHT22;16733;48.738;9.106;2023-04-24T00:35:49;10.70;99.90
29855;DHT22;16733;48.738;9.106;2023-04-24T00:38:14;10.70;99.90
29855;DHT22;16733;48.738;9.106;2023-04-24T00:40:40;10.70;99.90
29855;DHT22;16733;48.738;9.106;2023-04-24T00:43:06;10.70;99.90
29855;DHT22;16733;48.738;9.106;2023-04-24T00:45:31;10.80;99.90
29855;DHT22;16733;48.738;9.106;2023-04-24T00:47:57;10.80;99.90
29855;DHT22;16733;48.738;9.106;2023-04-24T00:50:24;10.80;99.90
29855;DHT22;16733;48.738;9.106;2023-04-24T00:52:49;10.80;99.90
29855;DHT22;16733;48.738;9.106;2023-04-24T00:55:16;10.80;99.90
29855;DHT22;16733;48.738;9.106;2023-04-24T00:57:41;10.80;99.90
29855;DHT22;16733;48.738;9.106;2023-04-24T01:00:07;10.80;99.90
29855;DHT22;16733;48.738;9.106;2023-04-24T01:02:39;10.80;99.90
29855;DHT22;16733;48.738;9.106;2023-04-24T01:05:07;10.80;99.90
29855;DHT22;16733;48.738;9.106;2023-04-24T01:07:33;10.80;99.90
29855;DHT22;16733;48.738;9.106;2023-04-24T01:09:59;10.80;99.90
29855;DHT22;16733;48.738;9.106;2023-04-24T01:12:25;10.80;99.90
29855;DHT22;16733;48.738;9.106;2023-04-24T01:14:50;10.90;99.90
29855;DHT22;16733;48.738;9.106;2023-04-24T01:17:16;10.80;99.90
29855;DHT22;16733;48.738;9.106;2023-04-24T01:19:42;10.80;99.90
29855;DHT22;16733;48.738;9.106;2023-04-24T01:22:14;10.80;99.90
29855;DHT22;16733;48.738;9.106;2023-04-24T01:24:40;10.80;99.90
29855;DHT22;16733;48.738;9.106;2023-04-24T01:27:06;10.80;99.90
29855;DHT22;16733;48.738;9.106;2023-04-24T01:29:33;10.70;99.90
29855;DHT22;16733;48.738;9.106;2023-04-24T01:31:59;10.50;99.90
29855;DHT22;16733;48.738;9.106;2023-04-24T01:34:25;10.50;99.90
29855;DHT22;16733;48.738;9.106;2023-04-24T01:36:51;10.40;99.90
29855;DHT22;16733;48.738;9.106;2023-04-24T01:39:16;10.30;99.90
29855;DHT22;16733;48.738;9.106;2023-04-24T01:41:42;10.30;99.90
29855;DHT22;16733;48.738;9.106;2023-04-24T01:44:08;10.30;99.90
29855;DHT22;16733;48.738;9.106;2023-04-24T01:46:34;10.20;99.90
29855;DHT22;16733;48.738;9.106;2023-04-24T01:49:01;10.20;99.90
29855;DHT22;16733;48.738;9.106;2023-04-24T01:51:27;10.20;99.90
29855;DHT22;16733;48.738;9.106;2023-04-24T01:53:52;10.20;99.90
29855;DHT22;16733;48.738;9.106;2023-04-24T01:56:20;10.20;99.90
29855;DHT22;16733;48.738;9.106;2023-04-24T01:58:46;10.20;99.90
29855;DHT22;16733;48.738;9.106;2023-04-24T02:01:19;10.20;99.90
29855;DHT22;16733;48.738;9.106;2023-04-24T02:03:44;10.20;99.90
29855;DHT22;16733;48.738;9.106;2023-04-24T02:06:10;10.20;99.90
29855;DHT22;16733;48.738;9.106;2023-04-24T02:08:35;10.20;99.90
29855;DHT22;16733;48.738;9.106;2023-04-24T02:11:01;10.20;99.90
29855;DHT22;16733;48.738;9.106;2023-04-24T02:13:27;10.20;99.90
29855;DHT22;16733;48.738;9.106;2023-04-24T02:15:53;10.20;99.90
29855;DHT22;16733;48.738;9.106;2023-04-24T02:18:19;10.20;99.90
29855;DHT22;16733;48.738;9.106;2023-04-24T02:20:45;10.20;99.90
29855;DHT22;16733;48.738;9.106;2023-04-24T02:23:10;10.20;99.90
29855;DHT22;16733;48.738;9.106;2023-04-24T02:25:36;10.10;99.90
29855;DHT22;16733;48.738;9.106;2023-04-24T02:28:01;10.20;99.90
29855;DHT22;16733;48.738;9.106;2023-04-24T02:30:28;10.20;99.90
29855;DHT22;16733;48.738;9.106;2023-04-24T02:32:54;10.20;99.90
29855;DHT22;16733;48.738;9.106;2023-04-24T02:35:20;10.20;99.90
29855;DHT22;16733;48.738;9.106;2023-04-24T02:37:46;10.20;99.90
29855;DHT22;16733;48.738;9.106;2023-04-24T02:40:12;10.20;99.90
29855;DHT22;16733;48.738;9.106;2023-04-24T02:42:37;10.20;99.90
29855;DHT22;16733;48.738;9.106;2023-04-24T02:45:03;10.10;99.90
29855;DHT22;16733;48.738;9.106;2023-04-24T02:47:29;10.10;99.90
29855;DHT22;16733;48.738;9.106;2023-04-24T02:49:54;10.00;99.90
29855;DHT22;16733;48.738;9.106;2023-04-24T02:52:20;10.00;99.90
29855;DHT22;16733;48.738;9.106;2023-04-24T02:54:46;10.00;99.90
29855;DHT22;16733;48.738;9.106;2023-04-24T02:57:14;9.90;99.90
29855;DHT22;16733;48.738;9.106;2023-04-24T02:59:40;9.90;99.90
29855;DHT22;16733;48.738;9.106;2023-04-24T03:02:06;9.90;99.90
29855;DHT22;16733;48.738;9.106;2023-04-24T03:04:31;9.80;99.90
29855;DHT22;16733;48.738;9.106;2023-04-24T03:06:57;9.80;99.90
29855;DHT22;16733;48.738;9.106;2023-04-24T03:09:23;9.70;99.90
29855;DHT22;16733;48.738;9.106;2023-04-24T03:11:49;9.80;99.90
29855;DHT22;16733;48.738;9.106;2023-04-24T03:14:15;9.70;99.90
29855;DHT22;16733;48.738;9.106;2023-04-24T03:16:41;9.60;99.90
29855;DHT22;16733;48.738;9.106;2023-04-24T03:19:07;9.60;99.90
29855;DHT22;16733;48.738;9.106;2023-04-24T03:21:33;9.60;99.90
29855;DHT22;16733;48.738;9.106;2023-04-24T03:23:58;9.60;99.90
29855;DHT22;16733;48.738;9.106;2023-04-24T03:26:25;9.60;99.90
29855;DHT22;16733;48.738;9.106;2023-04-24T03:28:50;9.60;99.90
29855;DHT22;16733;48.738;9.106;2023-04-24T03:31:16;9.60;99.90
29855;DHT22;16733;48.738;9.106;2023-04-24T03:33:42;9.60;99.90
29855;DHT22;16733;48.738;9.106;2023-04-24T03:36:07;9.60;99.90
29855;DHT22;16733;48.738;9.106;2023-04-24T03:38:33;9.50;99.90
29855;DHT22;16733;48.738;9.106;2023-04-24T03:40:59;9.60;99.90
29855;DHT22;16733;48.738;9.106;2023-04-24T03:43:24;9.60;99.90
29855;DHT22;16733;48.738;9.106;2023-04-24T03:45:50;9.60;99.90
29855;DHT22;16733;48.738;9.106;2023-04-24T03:48:16;9.70;99.90
29855;DHT22;16733;48.738;9.106;2023-04-24T03:50:41;9.60;99.90
29855;DHT22;16733;48.738;9.106;2023-04-24T03:53:07;9.60;99.90
29855;DHT22;16733;48.738;9.106;2023-04-24T03:55:33;9.60;99.90
29855;DHT22;16733;48.738;9.106;2023-04-24T03:57:59;9.60;99.90
29855;DHT22;16733;48.738;9.106;2023-04-24T04:00:24;9.60;99.90
29855;DHT22;16733;48.738;9.106;2023-04-24T04:02:51;9.60;99.90
29855;DHT22;16733;48.738;9.106;2023-04-24T04:05:17;9.60;99.90
29855;DHT22;16733;48.738;9.106;2023-04-24T04:07:42;9.60;99.90
29855;DHT22;16733;48.738;9.106;2023-04-24T04:10:08;9.60;99.90
29855;DHT22;16733;48.738;9.106;2023-04-24T04:12:33;9.60;99.90
29855;DHT22;16733;48.738;9.106;2023-04-24T04:14:59;9.60;99.90
29855;DHT22;16733;48.738;9.106;2023-04-24T04:17:25;9.60;99.90
29855;DHT22;16733;48.738;9.106;2023-04-24T04:19:51;9.70;99.90
29855;DHT22;16733;48.738;9.106;2023-04-24T04:22:16;9.70;99.90
29855;DHT22;16733;48.738;9.106;2023-04-24T04:24:42;9.70;99.90
29855;DHT22;16733;48.738;9.106;2023-04-24T04:27:08;9.60;99.90
29855;DHT22;16733;48.738;9.106;2023-04-24T04:29:34;9.50;99.90
29855;DHT22;16733;48.738;9.106;2023-04-24T04:32:00;9.40;99.90
29855;DHT22;16733;48.738;9.106;2023-04-24T04:34:26;9.20;99.90
29855;DHT22;16733;48.738;9.106;2023-04-24T04:36:52;9.20;99.90
29855;DHT22;16733;48.738;9.106;2023-04-24T04:39:17;9.10;99.90
29855;DHT22;16733;48.738;9.106;2023-04-24T04:41:44;9.00;99.90
29855;DHT22;16733;48.738;9.106;2023-04-24T04:44:11;8.90;99.90
29855;DHT22;16733;48.738;9.106;2023-04-24T04:46:38;8.80;99.90
29855;DHT22;16733;48.738;9.106;2023-04-24T04:49:03;8.70;99.90
29855;DHT22;16733;48.738;9.106;2023-04-24T04:51:29;8.70;99.90
29855;DHT22;16733;48.738;9.106;2023-04-24T04:53:56;8.60;99.90
29855;DHT22;16733;48.738;9.106;2023-04-24T04:56:21;8.60;99.90
29855;DHT22;16733;48.738;9.106;2023-04-24T04:58:47;8.60;99.90
29855;DHT22;16733;48.738;9.106;2023-04-24T05:01:13;8.60;99.90
29855;DHT22;16733;48.738;9.106;2023-04-24T05:03:38;8.50;99.90
29855;DHT22;16733;48.738;9.106;2023-04-24T05:06:04;8.50;99.90
29855;DHT22;16733;48.738;9.106;2023-04-24T05:08:30;8.40;99.90
29855;DHT22;16733;48.738;9.106;2023-04-24T05:10:55;8.40;99.90
29855;DHT22;16733;48.738;9.106;2023-04-24T05:13:21;8.40;99.90
29855;DHT22;16733;48.738;9.106;2023-04-24T05:15:47;8.40;99.90
29855;DHT22;16733;48.738;9.106;2023-04-24T05:18:15;8.40;99.90
29855;DHT22;16733;48.738;9.106;2023-04-24T05:20:41;8.40;99.90
29855;DHT22;16733;48.738;9.106;2023-04-24T05:23:09;8.40;99.90
29855;DHT22;16733;48.738;9.106;2023-04-24T05:25:35;8.50;99.90
29855;DHT22;16733;48.738;9.106;2023-04-24T05:28:01;8.50;99.90
29855;DHT22;16733;48.738;9.106;2023-04-24T05:30:27;8.50;99.90
29855;DHT22;16733;48.738;9.106;2023-04-24T05:32:53;8.50;99.90
29855;DHT22;16733;48.738;9.106;2023-04-24T05:35:18;8.50;99.90
29855;DHT22;16733;48.738;9.106;2023-04-24T05:37:44;8.50;99.90
29855;DHT22;16733;48.738;9.106;2023-04-24T05:40:10;8.50;99.90
29855;DHT22;16733;48.738;9.106;2023-04-24T05:42:36;8.50;99.90
29855;DHT22;16733;48.738;9.106;2023-04-24T05:45:02;8.60;99.90
29855;DHT22;16733;48.738;9.106;2023-04-24T05:47:27;8.60;99.90
29855;DHT22;16733;48.738;9.106;2023-04-24T05:49:53;8.60;99.90
29855;DHT22;16733;48.738;9.106;2023-04-24T05:52:19;8.70;99.90
29855;DHT22;16733;48.738;9.106;2023-04-24T05:54:44;8.70;99.90
29855;DHT22;16733;48.738;9.106;2023-04-24T05:57:10;8.70;99.90
29855;DHT22;16733;48.738;9.106;2023-04-24T05:59:40;8.70;99.90
29855;DHT22;16733;48.738;9.106;2023-04-24T06:02:06;8.70;99.90
29855;DHT22;16733;48.738;9.106;2023-04-24T06:04:32;8.70;99.90
29855;DHT22;16733;48.738;9.106;2023-04-24T06:06:58;8.70;99.90
29855;DHT22;16733;48.738;9.106;2023-04-24T06:09:25;8.70;99.90
29855;DHT22;16733;48.738;9.106;2023-04-24T06:11:51;8.70;99.90
29855;DHT22;16733;48.738;9.106;2023-04-24T06:14:18;8.70;99.90
29855;DHT22;16733;48.738;9.106;2023-04-24T06:16:44;8.60;99.90
29855;DHT22;16733;48.738;9.106;2023-04-24T06:19:09;8.60;99.90
29855;DHT22;16733;48.738;9.106;2023-04-24T06:21:35;8.70;99.90
29855;DHT22;16733;48.738;9.106;2023-04-24T06:24:01;8.70;99.90
29855;DHT22;16733;48.738;9.106;2023-04-24T06:26:27;8.80;99.90
29855;DHT22;16733;48.738;9.106;2023-04-24T06:28:53;8.90;99.90
29855;DHT22;16733;48.738;9.106;2023-04-24T06:31:23;9.10;99.90
29855;DHT22;16733;48.738;9.106;2023-04-24T06:33:49;9.20;99.90
29855;DHT22;16733;48.738;9.106;2023-04-24T06:36:15;9.30;99.90
29855;DHT22;16733;48.738;9.106;2023-04-24T06:38:41;9.40;99.90
29855;DHT22;16733;48.738;9.106;2023-04-24T06:41:06;9.50;99.90
29855;DHT22;16733;48.738;9.106;2023-04-24T06:43:32;9.60;99.90
29855;DHT22;16733;48.738;9.106;2023-04-24T06:45:59;9.60;99.90
29855;DHT22;16733;48.738;9.106;2023-04-24T06:48:25;9.70;99.90
29855;DHT22;16733;48.738;9.106;2023-04-24T06:50:51;9.80;99.90
29855;DHT22;16733;48.738;9.106;2023-04-24T06:53:17;9.90;99.90
29855;DHT22;16733;48.738;9.106;2023-04-24T06:55:43;10.00;99.90
29855;DHT22;16733;48.738;9.106;2023-04-24T06:58:10;10.20;99.90
29855;DHT22;16733;48.738;9.106;2023-04-24T07:00:36;10.30;99.90
29855;DHT22;16733;48.738;9.106;2023-04-24T07:03:01;10.40;99.90
29855;DHT22;16733;48.738;9.106;2023-04-24T07:05:27;10.40;99.90
29855;DHT22;16733;48.738;9.106;2023-04-24T07:07:53;10.40;99.90
29855;DHT22;16733;48.738;9.106;2023-04-24T07:10:19;10.40;99.90
29855;DHT22;16733;48.738;9.106;2023-04-24T07:12:45;10.50;99.90
29855;DHT22;16733;48.738;9.106;2023-04-24T07:15:12;10.50;99.90
29855;DHT22;16733;48.738;9.106;2023-04-24T07:17:37;10.40;99.90
29855;DHT22;16733;48.738;9.106;2023-04-24T07:20:04;10.40;99.90
29855;DHT22;16733;48.738;9.106;2023-04-24T07:22:31;10.30;99.90
29855;DHT22;16733;48.738;9.106;2023-04-24T07:24:56;10.30;99.90
29855;DHT22;16733;48.738;9.106;2023-04-24T07:27:22;10.20;99.90
29855;DHT22;16733;48.738;9.106;2023-04-24T07:29:48;10.20;99.90
29855;DHT22;16733;48.738;9.106;2023-04-24T07:32:13;10.20;99.90
29855;DHT22;16733;48.738;9.106;2023-04-24T07:34:39;10.30;99.90
29855;DHT22;16733;48.738;9.106;2023-04-24T07:37:05;10.30;99.90
29855;DHT22;16733;48.738;9.106;2023-04-24T07:39:31;10.40;99.90
29855;DHT22;16733;48.738;9.106;2023-04-24T07:41:57;10.60;99.90
29855;DHT22;16733;48.738;9.106;2023-04-24T07:44:27;10.80;99.90
29855;DHT22;16733;48.738;9.106;2023-04-24T07:46:52;10.90;99.90
29855;DHT22;16733;48.738;9.106;2023-04-24T07:49:18;11.00;99.90
29855;DHT22;16733;48.738;9.106;2023-04-24T07:51:44;10.90;99.90
29855;DHT22;16733;48.738;9.106;2023-04-24T07:54:10;10.80;99.90
29855;DHT22;16733;48.738;9.106;2023-04-24T07:56:36;10.80;99.90
29855;DHT22;16733;48.738;9.106;2023-04-24T07:59:04;10.80;99.90
29855;DHT22;16733;48.738;9.106;2023-04-24T08:01:30;10.90;99.90
29855;DHT22;16733;48.738;9.106;2023-04-24T08:03:55;10.80;99.90
29855;DHT22;16733;48.738;9.106;2023-04-24T08:06:22;10.90;99.90
29855;DHT22;16733;48.738;9.106;2023-04-24T08:08:47;10.90;99.90
29855;DHT22;16733;48.738;9.106;2023-04-24T08:11:13;10.80;99.90
29855;DHT22;16733;48.738;9.106;2023-04-24T08:13:38;10.80;99.90
29855;DHT22;16733;48.738;9.106;2023-04-24T08:16:04;10.70;99.90
29855;DHT22;16733;48.738;9.106;2023-04-24T08:18:30;10.70;99.90
29855;DHT22;16733;48.738;9.106;2023-04-24T08:20:55;10.70;99.90
29855;DHT22;16733;48.738;9.106;2023-04-24T08:23:26;10.60;99.90
29855;DHT22;16733;48.738;9.106;2023-04-24T08:25:52;10.70;99.90
29855;DHT22;16733;48.738;9.106;2023-04-24T08:28:17;10.80;99.90
29855;DHT22;16733;48.738;9.106;2023-04-24T08:30:46;10.90;99.90
29855;DHT22;16733;48.738;9.106;2023-04-24T08:33:12;11.00;99.90
29855;DHT22;16733;48.738;9.106;2023-04-24T08:35:38;11.10;99.90
29855;DHT22;16733;48.738;9.106;2023-04-24T08:38:04;11.20;99.90
29855;DHT22;16733;48.738;9.106;2023-04-24T08:40:33;11.20;99.90
29855;DHT22;16733;48.738;9.106;2023-04-24T08:42:59;11.30;99.90
29855;DHT22;16733;48.738;9.106;2023-04-24T08:45:26;11.40;99.90
29855;DHT22;16733;48.738;9.106;2023-04-24T08:47:53;11.50;99.90
29855;DHT22;16733;48.738;9.106;2023-04-24T08:50:21;11.60;99.90
29855;DHT22;16733;48.738;9.106;2023-04-24T08:52:49;11.70;99.90
29855;DHT22;16733;48.738;9.106;2023-04-24T08:55:15;11.80;99.90
29855;DHT22;16733;48.738;9.106;2023-04-24T08:57:44;11.90;99.90
29855;DHT22;16733;48.738;9.106;2023-04-24T09:00:10;12.10;99.90
29855;DHT22;16733;48.738;9.106;2023-04-24T09:02:36;12.20;99.90
29855;DHT22;16733;48.738;9.106;2023-04-24T09:05:04;12.20;99.90
29855;DHT22;16733;48.738;9.106;2023-04-24T09:07:32;12.20;99.90
29855;DHT22;16733;48.738;9.106;2023-04-24T09:10:01;12.10;99.90
29855;DHT22;16733;48.738;9.106;2023-04-24T09:12:27;12.10;99.90
29855;DHT22;16733;48.738;9.106;2023-04-24T09:14:53;12.10;99.90
29855;DHT22;16733;48.738;9.106;2023-04-24T09:17:20;12.00;99.90
29855;DHT22;16733;48.738;9.106;2023-04-24T09:19:48;11.80;99.90
29855;DHT22;16733;48.738;9.106;2023-04-24T09:22:15;11.70;99.90
29855;DHT22;16733;48.738;9.106;2023-04-24T09:24:40;11.60;99.90
29855;DHT22;16733;48.738;9.106;2023-04-24T09:27:07;11.50;99.90
29855;DHT22;16733;48.738;9.106;2023-04-24T09:29:33;11.40;99.90
29855;DHT22;16733;48.738;9.106;2023-04-24T09:31:59;11.50;99.90
29855;DHT22;16733;48.738;9.106;2023-04-24T09:34:27;11.60;99.90
29855;DHT22;16733;48.738;9.106;2023-04-24T09:36:54;11.70;99.90
29855;DHT22;16733;48.738;9.106;2023-04-24T09:39:20;11.80;99.90
29855;DHT22;16733;48.738;9.106;2023-04-24T09:41:51;11.90;99.90
29855;DHT22;16733;48.738;9.106;2023-04-24T09:46:49;12.20;99.90
29855;DHT22;16733;48.738;9.106;2023-04-24T09:49:19;12.10;99.90
29855;DHT22;16733;48.738;9.106;2023-04-24T09:51:45;12.00;99.90
29855;DHT22;16733;48.738;9.106;2023-04-24T09:54:15;11.90;99.90
29855;DHT22;16733;48.738;9.106;2023-04-24T09:56:49;11.70;99.90
29855;DHT22;16733;48.738;9.106;2023-04-24T09:59:16;11.60;99.90
29855;DHT22;16733;48.738;9.106;2023-04-24T10:01:42;11.50;99.90
29855;DHT22;16733;48.738;9.106;2023-04-24T10:04:23;11.50;99.90
29855;DHT22;16733;48.738;9.106;2023-04-24T10:06:51;11.50;99.90
29855;DHT22;16733;48.738;9.106;2023-04-24T10:09:19;11.60;99.90
29855;DHT22;16733;48.738;9.106;2023-04-24T10:11:50;11.70;99.90
29855;DHT22;16733;48.738;9.106;2023-04-24T10:14:19;11.80;99.90
29855;DHT22;16733;48.738;9.106;2023-04-24T10:16:46;12.00;99.90
29855;DHT22;16733;48.738;9.106;2023-04-24T10:19:13;12.00;99.90
29855;DHT22;16733;48.738;9.106;2023-04-24T10:21:41;12.00;99.90
29855;DHT22;16733;48.738;9.106;2023-04-24T10:24:17;12.00;99.90
29855;DHT22;16733;48.738;9.106;2023-04-24T10:26:44;12.10;99.90
29855;DHT22;16733;48.738;9.106;2023-04-24T10:29:12;12.30;99.90
29855;DHT22;16733;48.738;9.106;2023-04-24T10:31:41;12.60;99.90
29855;DHT22;16733;48.738;9.106;2023-04-24T10:34:08;12.80;99.90
29855;DHT22;16733;48.738;9.106;2023-04-24T10:36:36;12.90;99.90
29855;DHT22;16733;48.738;9.106;2023-04-24T10:39:05;12.80;99.90
29855;DHT22;16733;48.738;9.106;2023-04-24T10:41:37;12.70;99.90
29855;DHT22;16733;48.738;9.106;2023-04-24T10:44:13;12.60;99.90
29855;DHT22;16733;48.738;9.106;2023-04-24T10:46:45;12.40;99.90
29855;DHT22;16733;48.738;9.106;2023-04-24T10:49:12;12.30;99.90
29855;DHT22;16733;48.738;9.106;2023-04-24T10:51:52;12.20;99.90
29855;DHT22;16733;48.738;9.106;2023-04-24T10:56:51;12.10;99.90
29855;DHT22;16733;48.738;9.106;2023-04-24T10:59:27;12.00;99.90
29855;DHT22;16733;48.738;9.106;2023-04-24T11:01:59;12.00;99.90
29855;DHT22;16733;48.738;9.106;2023-04-24T11:04:32;11.80;99.90
29855;DHT22;16733;48.738;9.106;2023-04-24T11:06:58;11.70;99.90
29855;DHT22;16733;48.738;9.106;2023-04-24T11:09:28;11.50;99.90
29855;DHT22;16733;48.738;9.106;2023-04-24T11:12:11;11.40;99.90
29855;DHT22;16733;48.738;9.106;2023-04-24T11:17:36;11.30;99.90
29855;DHT22;16733;48.738;9.106;2023-04-24T11:20:16;11.20;99.90
29855;DHT22;16733;48.738;9.106;2023-04-24T11:22:42;11.30;99.90
29855;DHT22;16733;48.738;9.106;2023-04-24T11:25:11;11.40;99.90
29855;DHT22;16733;48.738;9.106;2023-04-24T11:27:41;11.60;99.90
29855;DHT22;16733;48.738;9.106;2023-04-24T11:30:08;11.90;99.90
29855;DHT22;16733;48.738;9.106;2023-04-24T11:32:42;12.10;99.90
29855;DHT22;16733;48.738;9.106;2023-04-24T11:35:16;12.30;99.90
29855;DHT22;16733;48.738;9.106;2023-04-24T11:37:44;12.40;99.90
29855;DHT22;16733;48.738;9.106;2023-04-24T11:40:17;12.40;99.90
29855;DHT22;16733;48.738;9.106;2023-04-24T11:42:46;12.30;99.90
29855;DHT22;16733;48.738;9.106;2023-04-24T11:47:42;11.80;99.90
29855;DHT22;16733;48.738;9.106;2023-04-24T11:50:13;11.70;99.90
29855;DHT22;16733;48.738;9.106;2023-04-24T11:52:57;11.60;99.90
29855;DHT22;16733;48.738;9.106;2023-04-24T11:57:50;11.60;99.90
29855;DHT22;16733;48.738;9.106;2023-04-24T12:00:20;11.80;99.90
29855;DHT22;16733;48.738;9.106;2023-04-24T12:02:47;11.90;99.90
29855;DHT22;16733;48.738;9.106;2023-04-24T12:05:26;12.10;99.90
29855;DHT22;16733;48.738;9.106;2023-04-24T12:07:52;12.20;99.90
29855;DHT22;16733;48.738;9.106;2023-04-24T12:10:25;12.20;99.90
29855;DHT22;16733;48.738;9.106;2023-04-24T12:12:51;12.10;99.90
29855;DHT22;16733;48.738;9.106;2023-04-24T12:15:19;11.90;99.90
29855;DHT22;16733;48.738;9.106;2023-04-24T12:17:45;11.80;99.90
29855;DHT22;16733;48.738;9.106;2023-04-24T12:20:12;11.70;99.90
29855;DHT22;16733;48.738;9.106;2023-04-24T12:25:11;11.50;99.90
29855;DHT22;16733;48.738;9.106;2023-04-24T12:27:37;11.50;99.90
29855;DHT22;16733;48.738;9.106;2023-04-24T12:30:04;11.60;99.90
29855;DHT22;16733;48.738;9.106;2023-04-24T12:32:31;11.60;99.90
29855;DHT22;16733;48.738;9.106;2023-04-24T12:34:57;11.60;99.90
29855;DHT22;16733;48.738;9.106;2023-04-24T12:37:31;11.70;99.90
29855;DHT22;16733;48.738;9.106;2023-04-24T12:40:07;11.70;99.90
29855;DHT22;16733;48.738;9.106;2023-04-24T12:42:34;11.80;99.90
29855;DHT22;16733;48.738;9.106;2023-04-24T12:45:05;11.90;99.90
29855;DHT22;16733;48.738;9.106;2023-04-24T12:47:32;11.80;99.90
29855;DHT22;16733;48.738;9.106;2023-04-24T12:49:58;11.80;99.90
29855;DHT22;16733;48.738;9.106;2023-04-24T12:52:25;11.60;99.90
29855;DHT22;16733;48.738;9.106;2023-04-24T12:54:56;11.40;99.90
29855;DHT22;16733;48.738;9.106;2023-04-24T12:57:23;11.30;99.90
29855;DHT22;16733;48.738;9.106;2023-04-24T12:59:49;11.20;99.90
29855;DHT22;16733;48.738;9.106;2023-04-24T13:02:15;11.00;99.90
29855;DHT22;16733;48.738;9.106;2023-04-24T13:04:46;10.90;99.90
29855;DHT22;16733;48.738;9.106;2023-04-24T13:07:13;10.80;99.90
29855;DHT22;16733;48.738;9.106;2023-04-24T13:09:40;10.60;99.90
29855;DHT22;16733;48.738;9.106;2023-04-24T13:12:07;10.40;99.90
29855;DHT22;16733;48.738;9.106;2023-04-24T13:14:32;10.10;99.90
29855;DHT22;16733;48.738;9.106;2023-04-24T13:16:58;9.80;99.90
29855;DHT22;16733;48.738;9.106;2023-04-24T13:19:27;9.70;99.90
29855;DHT22;16733;48.738;9.106;2023-04-24T13:21:55;9.70;99.90
29855;DHT22;16733;48.738;9.106;2023-04-24T13:24:22;9.90;99.90
29855;DHT22;16733;48.738;9.106;2023-04-24T13:26:50;10.30;99.90
29855;DHT22;16733;48.738;9.106;2023-04-24T13:29:16;10.70;99.90
29855;DHT22;16733;48.738;9.106;2023-04-24T13:31:41;10.90;99.90
29855;DHT22;16733;48.738;9.106;2023-04-24T13:34:07;11.00;99.90
29855;DHT22;16733;48.738;9.106;2023-04-24T13:36:33;11.00;99.90
29855;DHT22;16733;48.738;9.106;2023-04-24T13:38:58;11.00;99.90
29855;DHT22;16733;48.738;9.106;2023-04-24T13:41:24;10.90;99.90
29855;DHT22;16733;48.738;9.106;2023-04-24T13:43:50;10.80;99.90
29855;DHT22;16733;48.738;9.106;2023-04-24T13:46:16;10.70;99.90
29855;DHT22;16733;48.738;9.106;2023-04-24T13:48:41;10.50;99.90
29855;DHT22;16733;48.738;9.106;2023-04-24T13:51:07;10.20;99.90
29855;DHT22;16733;48.738;9.106;2023-04-24T13:53:32;10.00;99.90
29855;DHT22;16733;48.738;9.106;2023-04-24T13:56:01;9.80;99.90
29855;DHT22;16733;48.738;9.106;2023-04-24T13:58:27;9.70;99.90
29855;DHT22;16733;48.738;9.106;2023-04-24T14:00:53;9.70;99.90
29855;DHT22;16733;48.738;9.106;2023-04-24T14:03:18;9.80;99.90
29855;DHT22;16733;48.738;9.106;2023-04-24T14:05:44;10.00;99.90
29855;DHT22;16733;48.738;9.106;2023-04-24T14:08:09;10.20;99.90
29855;DHT22;16733;48.738;9.106;2023-04-24T14:10:35;10.20;99.90
29855;DHT22;16733;48.738;9.106;2023-04-24T14:13:01;10.20;99.90
29855;DHT22;16733;48.738;9.106;2023-04-24T14:15:26;10.10;99.90
29855;DHT22;16733;48.738;9.106;2023-04-24T14:17:52;9.90;99.90
29855;DHT22;16733;48.738;9.106;2023-04-24T14:20:18;9.80;99.90
29855;DHT22;16733;48.738;9.106;2023-04-24T14:22:43;9.70;99.90
29855;DHT22;16733;48.738;9.106;2023-04-24T14:25:09;9.50;99.90
29855;DHT22;16733;48.738;9.106;2023-04-24T14:27:34;9.30;99.90
29855;DHT22;16733;48.738;9.106;2023-04-24T14:30:00;9.10;99.90
29855;DHT22;16733;48.738;9.106;2023-04-24T14:32:26;9.20;99.90
29855;DHT22;16733;48.738;9.106;2023-04-24T14:34:52;9.40;99.90
29855;DHT22;16733;48.738;9.106;2023-04-24T14:37:18;9.60;99.90
29855;DHT22;16733;48.738;9.106;2023-04-24T14:39:43;9.80;99.90
29855;DHT22;16733;48.738;9.106;2023-04-24T14:42:09;9.90;99.90
29855;DHT22;16733;48.738;9.106;2023-04-24T14:44:34;10.00;99.90
29855;DHT22;16733;48.738;9.106;2023-04-24T14:47:00;10.00;99.90
29855;DHT22;16733;48.738;9.106;2023-04-24T14:49:26;10.10;99.90
29855;DHT22;16733;48.738;9.106;2023-04-24T14:51:52;10.20;99.90
29855;DHT22;16733;48.738;9.106;2023-04-24T14:54:17;10.30;99.90
29855;DHT22;16733;48.738;9.106;2023-04-24T14:56:43;10.90;99.90
29855;DHT22;16733;48.738;9.106;2023-04-24T14:59:09;12.20;99.90
29855;DHT22;16733;48.738;9.106;2023-04-24T15:01:35;13.60;99.90
29855;DHT22;16733;48.738;9.106;2023-04-24T15:04:01;13.80;99.90
29855;DHT22;16733;48.738;9.106;2023-04-24T15:06:26;13.40;99.90
29855;DHT22;16733;48.738;9.106;2023-04-24T15:08:52;12.90;99.90
29855;DHT22;16733;48.738;9.106;2023-04-24T15:11:18;12.50;99.90
29855;DHT22;16733;48.738;9.106;2023-04-24T15:13:44;12.10;99.90
29855;DHT22;16733;48.738;9.106;2023-04-24T15:16:12;11.80;99.90
29855;DHT22;16733;48.738;9.106;2023-04-24T15:18:38;11.50;99.90
29855;DHT22;16733;48.738;9.106;2023-04-24T15:21:03;11.30;99.90
29855;DHT22;16733;48.738;9.106;2023-04-24T15:23:29;11.10;99.90
29855;DHT22;16733;48.738;9.106;2023-04-24T15:25:55;10.90;99.90
29855;DHT22;16733;48.738;9.106;2023-04-24T15:28:21;10.70;99.90
29855;DHT22;16733;48.738;9.106;2023-04-24T15:31:00;10.50;99.90
29855;DHT22;16733;48.738;9.106;2023-04-24T15:33:26;10.40;99.90
29855;DHT22;16733;48.738;9.106;2023-04-24T15:35:51;10.30;99.90
29855;DHT22;16733;48.738;9.106;2023-04-24T15:38:17;10.10;99.90
29855;DHT22;16733;48.738;9.106;2023-04-24T15:40:43;10.00;99.90
29855;DHT22;16733;48.738;9.106;2023-04-24T15:43:09;9.90;99.90
29855;DHT22;16733;48.738;9.106;2023-04-24T15:45:36;9.80;99.90
29855;DHT22;16733;48.738;9.106;2023-04-24T15:51:23;9.70;99.90